Time;durP1;ratioP1;P1;durP2;ratioP2;P2;SDS_P1;SDS_P2;PMS_P1;PMS_P2;Temp;Humidity;BMP_temperature;BMP_pressure;BME280_temperature;BME280_humidity;BME280_pressure;Samples;Min_cycle;Max_cycle;Signal;HPM_P1;HPM_P2
2021/12/23 00:00:26;;;;;;;35.50;17.33;;;;;;;;;;5098608;28;20440;-67
2021/12/23 00:02:54;;;;;;;37.00;20.00;;;;;;;;;;5100984;28;20443;-67
2021/12/23 00:05:22;;;;;;;34.47;19.00;;;;;;;;;;5101208;28;20443;-67
2021/12/23 00:07:52;;;;;;;32.13;17.60;;;;;;;;;;5100935;28;20497;-67
2021/12/23 00:10:20;;;;;;;35.30;18.47;;;;;;;;;;5101126;28;20463;-67
2021/12/23 00:12:49;;;;;;;37.13;18.53;;;;;;;;;;5101000;28;20458;-67
2021/12/23 00:15:27;;;;;;;34.57;17.83;;;;;;;;;;5101065;28;20443;-67
2021/12/23 00:17:59;;;;;;;28.53;16.07;;;;;;;;;;5101072;28;20467;-67
2021/12/23 00:23:28;;;;;;;30.53;17.83;;;;;;;;;;5100808;28;20471;-67
2021/12/23 00:25:58;;;;;;;25.97;15.33;;;;;;;;;;5100813;28;21001;-67
2021/12/23 00:28:27;;;;;;;27.87;17.03;;;;;;;;;;5101431;28;20522;-67
2021/12/23 00:30:55;;;;;;;29.10;17.57;;;;;;;;;;5100254;28;20444;-67
2021/12/23 00:33:23;;;;;;;33.90;17.73;;;;;;;;;;5100127;28;20451;-67
2021/12/23 00:35:53;;;;;;;32.47;16.70;;;;;;;;;;5100535;28;20439;-67
2021/12/23 00:38:25;;;;;;;30.13;16.77;;;;;;;;;;5100401;28;20962;-67
2021/12/23 00:40:53;;;;;;;28.40;15.60;;;;;;;;;;5100645;28;20807;-67
2021/12/23 00:43:21;;;;;;;25.83;15.10;;;;;;;;;;5100411;28;20478;-67
2021/12/23 00:45:50;;;;;;;30.00;17.43;;;;;;;;;;5100743;28;20471;-67
2021/12/23 00:48:18;;;;;;;27.87;15.47;;;;;;;;;;5099799;28;20571;-67
2021/12/23 00:50:47;;;;;;;30.10;16.50;;;;;;;;;;5100220;28;20443;-67
2021/12/23 00:53:18;;;;;;;28.37;15.20;;;;;;;;;;5100477;28;20447;-67
2021/12/23 00:55:48;;;;;;;27.00;16.07;;;;;;;;;;5100156;28;20439;-67
2021/12/23 00:58:16;;;;;;;31.87;16.63;;;;;;;;;;5100261;28;20986;-67
2021/12/23 01:00:44;;;;;;;29.17;15.70;;;;;;;;;;5100200;28;20440;-67
2021/12/23 01:03:13;;;;;;;28.83;14.80;;;;;;;;;;5099780;28;20482;-67
2021/12/23 01:05:41;;;;;;;25.03;14.57;;;;;;;;;;5099900;28;20935;-67
2021/12/23 01:08:09;;;;;;;28.67;16.57;;;;;;;;;;5099492;28;20865;-67
2021/12/23 01:10:37;;;;;;;29.13;15.27;;;;;;;;;;5099879;28;20934;-67
2021/12/23 01:13:06;;;;;;;29.50;15.77;;;;;;;;;;5099809;28;20444;-67
2021/12/23 01:15:59;;;;;;;28.63;15.63;;;;;;;;;;5099861;28;20915;-67
2021/12/23 01:18:30;;;;;;;31.30;16.77;;;;;;;;;;5099705;28;20873;-67
2021/12/23 01:21:15;;;;;;;26.00;14.93;;;;;;;;;;5095536;28;20475;-67
2021/12/23 01:23:44;;;;;;;25.10;15.10;;;;;;;;;;5111961;28;20453;-67
2021/12/23 01:26:17;;;;;;;29.90;15.77;;;;;;;;;;5099657;28;20443;-67
2021/12/23 01:28:45;;;;;;;25.23;16.03;;;;;;;;;;5099220;28;20491;-67
2021/12/23 01:31:13;;;;;;;25.33;16.13;;;;;;;;;;5099353;28;20478;-67
2021/12/23 01:33:43;;;;;;;27.57;14.50;;;;;;;;;;5099365;28;20973;-67
2021/12/23 01:36:10;;;;;;;27.53;16.87;;;;;;;;;;5099351;28;20440;-67
2021/12/23 01:38:39;;;;;;;23.93;14.77;;;;;;;;;;5099090;28;20459;-67
2021/12/23 01:41:06;;;;;;;27.67;14.93;;;;;;;;;;5099182;28;20439;-67
2021/12/23 01:43:34;;;;;;;28.20;16.23;;;;;;;;;;5099223;28;20440;-67
2021/12/23 01:46:02;;;;;;;29.00;15.70;;;;;;;;;;5098923;28;20470;-67
2021/12/23 01:48:30;;;;;;;28.07;14.80;;;;;;;;;;5098968;28;20487;-67
2021/12/23 01:50:59;;;;;;;25.30;14.77;;;;;;;;;;5099107;28;20467;-67
2021/12/23 01:53:27;;;;;;;24.83;15.70;;;;;;;;;;5099198;28;20455;-67
2021/12/23 01:55:55;;;;;;;22.07;14.83;;;;;;;;;;5099094;28;20450;-67
2021/12/23 01:58:23;;;;;;;22.57;14.67;;;;;;;;;;5098827;28;20459;-67
2021/12/23 02:00:52;;;;;;;24.77;14.83;;;;;;;;;;5099025;28;20481;-67
2021/12/23 02:03:20;;;;;;;31.57;16.17;;;;;;;;;;5098295;28;20428;-67
2021/12/23 02:05:48;;;;;;;26.27;13.83;;;;;;;;;;5098786;28;20452;-67
2021/12/23 02:08:32;;;;;;;25.27;15.03;;;;;;;;;;5098694;28;20986;-67
2021/12/23 02:11:00;;;;;;;26.23;15.13;;;;;;;;;;5098800;28;20443;-67
2021/12/23 02:13:28;;;;;;;24.80;14.53;;;;;;;;;;5098737;28;20451;-67
2021/12/23 02:15:56;;;;;;;24.10;14.37;;;;;;;;;;5098861;28;20476;-67
2021/12/23 02:18:24;;;;;;;24.00;14.43;;;;;;;;;;5098402;28;20513;-67
2021/12/23 02:20:56;;;;;;;24.57;14.43;;;;;;;;;;5090538;28;20471;-67
2021/12/23 02:23:24;;;;;;;25.97;14.80;;;;;;;;;;5097962;28;20475;-67
2021/12/23 02:25:52;;;;;;;24.33;13.13;;;;;;;;;;5098378;28;20448;-67
2021/12/23 02:28:21;;;;;;;23.93;13.93;;;;;;;;;;5098298;28;20490;-67
2021/12/23 02:30:51;;;;;;;26.23;15.53;;;;;;;;;;5098429;28;20447;-67
2021/12/23 02:33:20;;;;;;;22.97;14.20;;;;;;;;;;5098000;28;20845;-67
2021/12/23 02:35:48;;;;;;;27.67;13.73;;;;;;;;;;5098257;28;20477;-67
2021/12/23 02:38:17;;;;;;;22.43;12.80;;;;;;;;;;5097885;28;20520;-67
2021/12/23 02:40:45;;;;;;;21.57;12.60;;;;;;;;;;5098320;28;20471;-67
2021/12/23 02:43:14;;;;;;;24.30;13.70;;;;;;;;;;5097970;28;20512;-67
2021/12/23 02:45:43;;;;;;;24.10;13.23;;;;;;;;;;5098137;28;20448;-67
2021/12/23 02:48:12;;;;;;;19.40;12.20;;;;;;;;;;5085106;28;20494;-67
2021/12/23 02:50:40;;;;;;;22.27;13.80;;;;;;;;;;5099230;28;20456;-67
2021/12/23 02:53:08;;;;;;;20.40;12.93;;;;;;;;;;5108261;28;20448;-66
2021/12/23 02:55:37;;;;;;;21.97;13.00;;;;;;;;;;5097665;28;20474;-67
2021/12/23 02:58:05;;;;;;;22.53;13.00;;;;;;;;;;5097937;28;20460;-67
2021/12/23 03:00:33;;;;;;;20.40;11.57;;;;;;;;;;5097696;28;20498;-67
2021/12/23 03:03:01;;;;;;;26.47;12.13;;;;;;;;;;5097590;28;20501;-67
2021/12/23 03:05:29;;;;;;;23.43;12.97;;;;;;;;;;5097724;28;20526;-67
2021/12/23 03:07:56;;;;;;;19.97;13.53;;;;;;;;;;5096281;28;20537;-67
2021/12/23 03:10:24;;;;;;;22.13;12.43;;;;;;;;;;5096983;28;20439;-67
2021/12/23 03:12:54;;;;;;;19.67;12.20;;;;;;;;;;5097710;28;20439;-67
2021/12/23 03:15:22;;;;;;;24.67;12.57;;;;;;;;;;5097422;28;20463;-67
2021/12/23 03:17:49;;;;;;;21.80;11.73;;;;;;;;;;5097224;28;20850;-67
2021/12/23 03:20:17;;;;;;;21.03;11.97;;;;;;;;;;5097423;28;20875;-67
2021/12/23 03:22:45;;;;;;;19.40;11.87;;;;;;;;;;5097600;28;20799;-67
2021/12/23 03:25:13;;;;;;;18.97;12.80;;;;;;;;;;5097612;28;21890;-67
2021/12/23 03:27:40;;;;;;;17.17;11.67;;;;;;;;;;5097315;28;20443;-67
2021/12/23 03:30:10;;;;;;;20.37;12.60;;;;;;;;;;5105338;28;20953;-67
2021/12/23 03:32:38;;;;;;;21.67;12.30;;;;;;;;;;5097273;28;20440;-67
2021/12/23 03:35:06;;;;;;;21.23;10.93;;;;;;;;;;5099814;28;20443;-67
2021/12/23 03:37:34;;;;;;;22.50;11.93;;;;;;;;;;5101718;28;20447;-67
2021/12/23 03:40:01;;;;;;;19.87;11.63;;;;;;;;;;5101605;28;20467;-67
2021/12/23 03:42:29;;;;;;;20.97;12.30;;;;;;;;;;5101538;28;20452;-67
2021/12/23 03:44:57;;;;;;;19.17;11.27;;;;;;;;;;5101520;28;20471;-67
2021/12/23 03:47:26;;;;;;;21.20;11.40;;;;;;;;;;5100938;28;20479;-67
2021/12/23 03:49:54;;;;;;;16.83;10.63;;;;;;;;;;5101442;28;20487;-67
2021/12/23 03:52:21;;;;;;;17.60;10.73;;;;;;;;;;5101391;28;20465;-67
2021/12/23 03:54:49;;;;;;;16.73;11.00;;;;;;;;;;5101299;28;20800;-67
2021/12/23 03:57:17;;;;;;;21.03;11.20;;;;;;;;;;5101282;28;20444;-67
2021/12/23 03:59:44;;;;;;;19.63;11.37;;;;;;;;;;5105547;28;20467;-67
2021/12/23 04:02:12;;;;;;;19.97;10.63;;;;;;;;;;5107882;28;20482;-67
2021/12/23 04:04:41;;;;;;;19.03;11.53;;;;;;;;;;5101174;28;20816;-67
2021/12/23 04:07:09;;;;;;;21.07;12.10;;;;;;;;;;5100949;28;20497;-67
2021/12/23 04:09:37;;;;;;;18.07;10.83;;;;;;;;;;5101070;28;20524;-67
2021/12/23 04:12:05;;;;;;;25.93;12.07;;;;;;;;;;5100829;28;20431;-67
2021/12/23 04:14:33;;;;;;;23.33;11.63;;;;;;;;;;5101218;28;20497;-67
2021/12/23 04:17:01;;;;;;;21.63;11.27;;;;;;;;;;5100474;28;20451;-67
2021/12/23 04:19:31;;;;;;;19.97;11.17;;;;;;;;;;5100790;28;20467;-67
2021/12/23 04:22:00;;;;;;;23.07;12.50;;;;;;;;;;5100890;28;20473;-67
2021/12/23 04:24:28;;;;;;;17.77;10.67;;;;;;;;;;5100941;28;20443;-67
2021/12/23 04:26:56;;;;;;;20.30;11.07;;;;;;;;;;5100466;28;20443;-67
2021/12/23 04:29:24;;;;;;;18.37;10.70;;;;;;;;;;5100987;28;20483;-67
2021/12/23 04:31:53;;;;;;;17.30;10.73;;;;;;;;;;5100264;28;20449;-67
2021/12/23 04:34:20;;;;;;;18.83;10.37;;;;;;;;;;5100543;28;20443;-67
2021/12/23 04:36:48;;;;;;;19.10;10.47;;;;;;;;;;5100555;28;20448;-67
2021/12/23 04:39:17;;;;;;;19.83;11.87;;;;;;;;;;5100576;28;20455;-67
2021/12/23 04:41:45;;;;;;;16.33;10.43;;;;;;;;;;5100528;28;20451;-67
2021/12/23 04:44:13;;;;;;;15.03;10.07;;;;;;;;;;5100151;28;20498;-67
2021/12/23 04:46:40;;;;;;;16.53;9.17;;;;;;;;;;5099125;28;20479;-67
2021/12/23 04:49:08;;;;;;;18.50;9.90;;;;;;;;;;5100269;28;20519;-67
2021/12/23 04:51:37;;;;;;;11.73;7.23;;;;;;;;;;5100002;28;20444;-67
2021/12/23 04:54:04;;;;;;;11.87;7.50;;;;;;;;;;5100049;28;20435;-66
2021/12/23 04:56:33;;;;;;;9.60;6.37;;;;;;;;;;5100230;28;20504;-67
2021/12/23 04:59:01;;;;;;;8.67;5.87;;;;;;;;;;5102077;28;20463;-67
2021/12/23 05:01:31;;;;;;;8.60;5.63;;;;;;;;;;5110139;28;20471;-67
2021/12/23 05:03:59;;;;;;;5.50;4.43;;;;;;;;;;5099983;28;20512;-67
2021/12/23 05:06:28;;;;;;;9.50;5.03;;;;;;;;;;5099822;28;20471;-67
2021/12/23 05:08:56;;;;;;;12.03;5.73;;;;;;;;;;5099766;28;20487;-67
2021/12/23 05:11:23;;;;;;;8.00;4.93;;;;;;;;;;5100035;28;20491;-67
2021/12/23 05:13:53;;;;;;;9.60;5.43;;;;;;;;;;5099895;28;20458;-67
2021/12/23 05:16:20;;;;;;;8.50;4.93;;;;;;;;;;5099690;28;20496;-67
2021/12/23 05:18:48;;;;;;;7.03;4.77;;;;;;;;;;5099505;28;20505;-67
2021/12/23 05:21:16;;;;;;;11.10;5.20;;;;;;;;;;5099801;28;20439;-67
2021/12/23 05:23:44;;;;;;;6.30;4.90;;;;;;;;;;5099736;28;20451;-67
2021/12/23 05:26:12;;;;;;;7.47;5.27;;;;;;;;;;5099611;28;20927;-67
2021/12/23 05:28:39;;;;;;;6.63;4.37;;;;;;;;;;5100804;28;20532;-67
2021/12/23 05:31:08;;;;;;;5.10;4.60;;;;;;;;;;5113470;28;20485;-67
2021/12/23 05:33:36;;;;;;;8.30;4.80;;;;;;;;;;5099700;28;20447;-67
2021/12/23 05:36:04;;;;;;;7.27;4.80;;;;;;;;;;5099504;28;20436;-67
2021/12/23 05:38:32;;;;;;;7.43;4.77;;;;;;;;;;5098538;28;20482;-67
2021/12/23 05:41:00;;;;;;;7.00;5.00;;;;;;;;;;5095243;28;20428;-69
2021/12/23 05:43:27;;;;;;;5.37;4.30;;;;;;;;;;5096995;28;20443;-68
2021/12/23 05:45:55;;;;;;;5.87;4.60;;;;;;;;;;5094933;28;20808;-68
2021/12/23 05:48:24;;;;;;;7.90;5.33;;;;;;;;;;5094922;28;20472;-68
2021/12/23 05:50:52;;;;;;;7.73;5.80;;;;;;;;;;5095117;28;20499;-68
2021/12/23 05:53:20;;;;;;;10.13;4.70;;;;;;;;;;5098731;28;20949;-68
2021/12/23 05:55:47;;;;;;;7.23;5.03;;;;;;;;;;5096752;28;20455;-68
2021/12/23 05:58:15;;;;;;;6.33;4.27;;;;;;;;;;5097425;28;20456;-68
2021/12/23 06:00:43;;;;;;;7.13;4.23;;;;;;;;;;5095461;28;20428;-68
2021/12/23 06:03:11;;;;;;;6.17;4.53;;;;;;;;;;5095623;28;20455;-68
2021/12/23 06:05:40;;;;;;;6.53;5.23;;;;;;;;;;5099646;28;20444;-68
2021/12/23 06:08:07;;;;;;;8.37;5.60;;;;;;;;;;5095013;28;21018;-68
2021/12/23 06:10:35;;;;;;;6.30;4.67;;;;;;;;;;5098002;28;20476;-67
2021/12/23 06:13:03;;;;;;;6.93;5.07;;;;;;;;;;5098219;28;20864;-68
2021/12/23 06:15:31;;;;;;;7.93;4.97;;;;;;;;;;5094255;28;20935;-68
2021/12/23 06:17:59;;;;;;;7.87;4.47;;;;;;;;;;5095199;28;20444;-68
2021/12/23 06:20:26;;;;;;;6.70;5.40;;;;;;;;;;5096279;28;20478;-68
2021/12/23 06:22:55;;;;;;;6.47;4.40;;;;;;;;;;5090330;28;20982;-68
2021/12/23 06:25:23;;;;;;;10.00;5.40;;;;;;;;;;5092473;28;20440;-68
2021/12/23 06:27:51;;;;;;;8.67;4.80;;;;;;;;;;5096208;28;20458;-68
2021/12/23 06:30:19;;;;;;;5.43;4.17;;;;;;;;;;5096209;28;20501;-68
2021/12/23 06:32:49;;;;;;;6.70;4.93;;;;;;;;;;5095531;28;20443;-68
2021/12/23 06:35:17;;;;;;;5.07;4.37;;;;;;;;;;5096696;28;20451;-68
2021/12/23 06:37:45;;;;;;;6.87;4.17;;;;;;;;;;5097430;28;20501;-69
2021/12/23 06:40:15;;;;;;;6.37;4.73;;;;;;;;;;5093277;28;20428;-69
2021/12/23 06:42:43;;;;;;;6.63;4.67;;;;;;;;;;5097164;28;20847;-69
2021/12/23 06:45:11;;;;;;;7.20;5.07;;;;;;;;;;5094802;28;20439;-69
2021/12/23 06:47:39;;;;;;;8.70;5.40;;;;;;;;;;5091061;28;20439;-69
2021/12/23 06:50:08;;;;;;;7.33;5.40;;;;;;;;;;5094799;28;20479;-69
2021/12/23 06:52:36;;;;;;;11.40;5.20;;;;;;;;;;5098446;28;20440;-68
2021/12/23 06:55:04;;;;;;;8.20;4.90;;;;;;;;;;5094207;28;20456;-69
2021/12/23 06:57:33;;;;;;;6.53;4.70;;;;;;;;;;5092484;28;20800;-68
2021/12/23 07:00:01;;;;;;;7.07;4.80;;;;;;;;;;5095035;28;20463;-69
2021/12/23 07:02:31;;;;;;;9.13;5.13;;;;;;;;;;5095268;28;20450;-69
2021/12/23 07:04:59;;;;;;;6.40;5.33;;;;;;;;;;5094159;28;20458;-69
2021/12/23 07:07:29;;;;;;;12.13;5.23;;;;;;;;;;5097052;28;20468;-69
2021/12/23 07:09:57;;;;;;;6.57;5.13;;;;;;;;;;5094200;28;20993;-70
2021/12/23 07:12:25;;;;;;;6.67;5.07;;;;;;;;;;5095971;28;20455;-69
2021/12/23 07:14:54;;;;;;;6.73;4.90;;;;;;;;;;5095661;28;20432;-68
2021/12/23 07:17:24;;;;;;;7.50;4.87;;;;;;;;;;5096940;28;20436;-68
2021/12/23 07:19:51;;;;;;;8.93;5.63;;;;;;;;;;5097001;28;20467;-68
2021/12/23 07:22:19;;;;;;;5.83;4.50;;;;;;;;;;5094696;28;20436;-69
2021/12/23 07:24:47;;;;;;;4.70;4.30;;;;;;;;;;5097616;28;20945;-68
2021/12/23 07:27:14;;;;;;;6.77;5.20;;;;;;;;;;5097585;28;20443;-68
2021/12/23 07:29:42;;;;;;;6.67;5.43;;;;;;;;;;5097387;28;20962;-69
2021/12/23 07:32:11;;;;;;;6.90;5.00;;;;;;;;;;5103401;28;20486;-67
2021/12/23 07:34:40;;;;;;;6.03;4.53;;;;;;;;;;5105142;28;20208;-68
2021/12/23 07:37:09;;;;;;;8.43;5.47;;;;;;;;;;5105422;28;20440;-66
2021/12/23 07:39:38;;;;;;;6.83;4.87;;;;;;;;;;5105560;28;20466;-62
2021/12/23 07:42:27;;;;;;;6.20;4.57;;;;;;;;;;5102558;28;20438;-62
2021/12/23 07:44:55;;;;;;;6.43;4.87;;;;;;;;;;5097308;28;20447;-62
2021/12/23 07:47:24;;;;;;;6.83;4.53;;;;;;;;;;5097199;28;21019;-62
2021/12/23 07:49:52;;;;;;;6.03;4.63;;;;;;;;;;5097191;28;20463;-62
2021/12/23 07:52:21;;;;;;;7.13;5.63;;;;;;;;;;5097465;28;20447;-62
2021/12/23 07:54:50;;;;;;;7.70;5.37;;;;;;;;;;5097294;28;20448;-62
2021/12/23 07:57:18;;;;;;;7.23;5.10;;;;;;;;;;5097380;28;20443;-63
2021/12/23 07:59:45;;;;;;;7.53;5.33;;;;;;;;;;5097382;28;20251;-62
2021/12/23 08:02:13;;;;;;;7.37;5.17;;;;;;;;;;5099557;28;20202;-63
2021/12/23 08:04:47;;;;;;;8.73;5.40;;;;;;;;;;5091529;28;20275;-63
2021/12/23 08:07:15;;;;;;;8.03;5.40;;;;;;;;;;5102123;28;20843;-63
2021/12/23 08:09:43;;;;;;;7.23;4.33;;;;;;;;;;5105439;28;20467;-63
2021/12/23 08:12:11;;;;;;;7.60;5.13;;;;;;;;;;5105546;28;20478;-62
2021/12/23 08:14:39;;;;;;;9.33;4.97;;;;;;;;;;5103169;28;20198;-66
2021/12/23 08:17:26;;;;;;;7.70;5.17;;;;;;;;;;5104734;28;20225;-66
2021/12/23 08:19:55;;;;;;;8.77;5.10;;;;;;;;;;5102713;28;20376;-66
2021/12/23 08:22:23;;;;;;;6.37;5.17;;;;;;;;;;5108137;28;20190;-66
2021/12/23 08:24:51;;;;;;;8.27;5.10;;;;;;;;;;5108461;28;20205;-66
2021/12/23 08:27:20;;;;;;;6.97;5.03;;;;;;;;;;5099246;28;20303;-68
2021/12/23 08:29:48;;;;;;;9.70;6.03;;;;;;;;;;5109466;28;20224;-66
2021/12/23 08:32:16;;;;;;;8.60;5.60;;;;;;;;;;5105223;28;20222;-68
2021/12/23 08:34:44;;;;;;;8.70;6.03;;;;;;;;;;5110519;28;20534;-66
2021/12/23 08:37:13;;;;;;;7.67;5.70;;;;;;;;;;5109562;28;20443;-66
2021/12/23 08:39:41;;;;;;;6.53;5.23;;;;;;;;;;5099610;28;20213;-66
2021/12/23 08:42:09;;;;;;;9.10;5.80;;;;;;;;;;5098687;28;20201;-66
2021/12/23 08:44:40;;;;;;;8.13;5.27;;;;;;;;;;5102881;28;20201;-66
2021/12/23 08:47:08;;;;;;;10.30;5.80;;;;;;;;;;5108454;28;20197;-66
2021/12/23 08:49:36;;;;;;;10.87;5.33;;;;;;;;;;5109276;28;20251;-66
2021/12/23 08:52:04;;;;;;;8.23;5.67;;;;;;;;;;5106812;28;20253;-66
2021/12/23 08:54:33;;;;;;;8.73;5.77;;;;;;;;;;5107787;28;20267;-67
2021/12/23 08:57:01;;;;;;;6.67;5.00;;;;;;;;;;5105884;28;20317;-67
2021/12/23 08:59:29;;;;;;;7.37;4.90;;;;;;;;;;5105007;28;20233;-67
2021/12/23 09:01:56;;;;;;;8.67;5.77;;;;;;;;;;5109875;28;20193;-66
2021/12/23 09:04:24;;;;;;;6.67;5.80;;;;;;;;;;5105285;28;20198;-66
2021/12/23 09:06:52;;;;;;;10.10;5.23;;;;;;;;;;5107926;28;20224;-66
2021/12/23 09:09:21;;;;;;;6.90;5.30;;;;;;;;;;5105722;28;20220;-66
2021/12/23 09:11:50;;;;;;;7.53;5.97;;;;;;;;;;5109327;28;20673;-67
2021/12/23 09:14:19;;;;;;;11.33;5.50;;;;;;;;;;5107945;28;20692;-67
2021/12/23 09:16:46;;;;;;;6.60;5.30;;;;;;;;;;5105064;28;20197;-67
2021/12/23 09:19:15;;;;;;;7.83;5.20;;;;;;;;;;5104346;28;20218;-66
2021/12/23 09:21:42;;;;;;;7.23;5.00;;;;;;;;;;5105145;28;20201;-67
2021/12/23 09:24:10;;;;;;;7.17;5.60;;;;;;;;;;5109210;28;20480;-67
2021/12/23 09:26:47;;;;;;;7.80;4.90;;;;;;;;;;5108872;28;20200;-66
2021/12/23 09:32:39;;;;;;;18.40;7.67;;;;;;;;;;5104865;28;20252;-66
2021/12/23 09:34:50;;;;;;;7.43;4.33;;;;;;;;;;5091013;28;20194;-67
2021/12/23 09:37:18;;;;;;;5.00;4.50;;;;;;;;;;5107924;28;20258;-66
2021/12/23 09:39:52;;;;;;;7.77;4.97;;;;;;;;;;5107741;28;20274;-67
2021/12/23 09:42:20;;;;;;;6.80;5.03;;;;;;;;;;5104011;28;20243;-67
2021/12/23 09:44:50;;;;;;;7.47;4.60;;;;;;;;;;5099010;28;20664;-68
2021/12/23 09:47:18;;;;;;;7.43;4.67;;;;;;;;;;5101597;28;20201;-68
2021/12/23 09:49:46;;;;;;;6.70;5.07;;;;;;;;;;5107296;28;20557;-68
2021/12/23 09:52:13;;;;;;;8.13;4.67;;;;;;;;;;5106525;28;20221;-68
2021/12/23 09:54:43;;;;;;;6.80;4.90;;;;;;;;;;5100929;28;20210;-68
2021/12/23 09:57:10;;;;;;;5.07;3.93;;;;;;;;;;5105709;28;20200;-67
2021/12/23 09:59:38;;;;;;;6.13;4.43;;;;;;;;;;5109211;28;20217;-67
2021/12/23 10:02:08;;;;;;;7.17;4.80;;;;;;;;;;5104555;28;20637;-67
2021/12/23 10:04:36;;;;;;;8.70;5.57;;;;;;;;;;5098406;28;20277;-68
2021/12/23 10:07:04;;;;;;;11.50;4.93;;;;;;;;;;5098420;28;20241;-67
2021/12/23 10:09:43;;;;;;;6.73;5.00;;;;;;;;;;5098458;28;20240;-67
2021/12/23 10:31:50;;;;;;;6.53;4.07;;;;;;;;;;5074750;28;20221;-68
2021/12/23 10:37:15;;;;;;;5.33;4.77;;;;;;;;;;5097903;28;20212;-68
2021/12/23 10:39:43;;;;;;;4.87;4.17;;;;;;;;;;5100378;28;20216;-67
2021/12/23 10:42:11;;;;;;;8.07;4.27;;;;;;;;;;5101793;28;20220;-69
2021/12/23 10:44:39;;;;;;;6.20;4.20;;;;;;;;;;5106205;28;20201;-67
2021/12/23 10:47:08;;;;;;;7.70;4.23;;;;;;;;;;5104743;28;20205;-68
2021/12/23 10:49:43;;;;;;;5.80;3.80;;;;;;;;;;5097740;28;20235;-67
2021/12/23 10:52:17;;;;;;;5.77;4.07;;;;;;;;;;5097864;28;20262;-67
2021/12/23 11:00:18;;;;;;;6.60;3.93;;;;;;;;;;5102818;28;20684;-67
2021/12/23 11:03:05;;;;;;;9.40;5.13;;;;;;;;;;5105608;28;20226;-67
2021/12/23 11:05:39;;;;;;;7.13;4.50;;;;;;;;;;5105704;28;20205;-67
2021/12/23 11:08:17;;;;;;;5.77;4.03;;;;;;;;;;5099573;28;20290;-68
2021/12/23 11:27:55;;;;;;;4.37;3.53;;;;;;;;;;5096630;28;20649;-67
2021/12/23 11:31:16;;;;;;;5.23;3.47;;;;;;;;;;5095583;28;20348;-67
2021/12/23 11:36:44;;;;;;;5.90;3.40;;;;;;;;;;5096739;28;20580;-68
2021/12/23 11:39:27;;;;;;;6.20;3.83;;;;;;;;;;5091815;28;20229;-67
2021/12/23 11:42:02;;;;;;;7.03;4.23;;;;;;;;;;5096801;28;20215;-67
2021/12/23 11:44:31;;;;;;;4.30;3.70;;;;;;;;;;5097009;28;20611;-67
2021/12/23 11:47:03;;;;;;;4.57;3.93;;;;;;;;;;5088232;28;20213;-67
2021/12/23 11:49:31;;;;;;;4.70;3.97;;;;;;;;;;5096342;28;20233;-67
2021/12/23 11:51:58;;;;;;;6.60;3.90;;;;;;;;;;5088305;28;20267;-67
2021/12/23 11:54:31;;;;;;;9.27;4.30;;;;;;;;;;5091571;28;20206;-67
2021/12/23 11:57:02;;;;;;;6.03;4.33;;;;;;;;;;5096834;28;20258;-67
2021/12/23 11:59:30;;;;;;;6.20;4.37;;;;;;;;;;5091784;28;20218;-67
2021/12/23 12:01:58;;;;;;;6.83;3.90;;;;;;;;;;5104661;28;20656;-66
2021/12/23 12:04:28;;;;;;;6.67;3.93;;;;;;;;;;5108134;28;20220;-67
2021/12/23 12:06:57;;;;;;;5.73;3.70;;;;;;;;;;5105068;28;21656;-66
2021/12/23 12:09:26;;;;;;;7.20;3.70;;;;;;;;;;5097083;28;20623;-66
2021/12/23 12:12:06;;;;;;;8.30;4.63;;;;;;;;;;5094604;28;20232;-67
2021/12/23 12:14:40;;;;;;;10.43;4.27;;;;;;;;;;5096257;28;20295;-67
2021/12/23 12:17:26;;;;;;;11.10;3.90;;;;;;;;;;5098987;28;20201;-68
2021/12/23 12:19:57;;;;;;;13.10;6.17;;;;;;;;;;5093951;28;20221;-67
2021/12/23 12:22:43;;;;;;;4.80;3.43;;;;;;;;;;5098952;28;20201;-69
2021/12/23 12:25:11;;;;;;;6.13;3.77;;;;;;;;;;5102450;28;20224;-67
2021/12/23 12:27:43;;;;;;;3.97;3.50;;;;;;;;;;5100913;28;20552;-68
2021/12/23 12:30:11;;;;;;;5.87;3.63;;;;;;;;;;5100946;28;20198;-68
2021/12/23 12:32:39;;;;;;;5.63;4.23;;;;;;;;;;5099605;28;20221;-69
2021/12/23 12:35:11;;;;;;;8.10;3.60;;;;;;;;;;5105080;28;20209;-69
2021/12/23 12:37:44;;;;;;;5.60;3.43;;;;;;;;;;5103225;28;20202;-68
2021/12/23 12:40:11;;;;;;;7.20;3.77;;;;;;;;;;5105672;28;20266;-68
2021/12/23 12:42:45;;;;;;;7.07;3.50;;;;;;;;;;5102143;28;20217;-69
2021/12/23 12:45:24;;;;;;;8.80;3.53;;;;;;;;;;5102364;28;20627;-68
2021/12/23 12:47:56;;;;;;;6.53;3.63;;;;;;;;;;5097914;28;20586;-68
2021/12/23 12:50:27;;;;;;;8.27;4.27;;;;;;;;;;5090605;28;20237;-69
2021/12/23 12:53:01;;;;;;;5.93;3.77;;;;;;;;;;5098792;28;20221;-69
2021/12/23 12:55:29;;;;;;;4.20;3.80;;;;;;;;;;5090289;28;20231;-69
2021/12/23 12:58:01;;;;;;;5.83;3.50;;;;;;;;;;5094555;28;20596;-68
2021/12/23 13:00:32;;;;;;;4.97;3.60;;;;;;;;;;5095371;28;20233;-68
2021/12/23 13:03:04;;;;;;;4.00;3.20;;;;;;;;;;5097837;28;20305;-68
2021/12/23 13:05:35;;;;;;;3.47;3.17;;;;;;;;;;5098063;28;20205;-68
2021/12/23 13:08:14;;;;;;;39.23;8.70;;;;;;;;;;5097491;28;20287;-68
2021/12/23 13:10:47;;;;;;;20.13;5.73;;;;;;;;;;5098488;28;20629;-69
2021/12/23 13:13:26;;;;;;;22.73;6.73;;;;;;;;;;5098164;28;20243;-68
2021/12/23 13:15:58;;;;;;;42.23;9.67;;;;;;;;;;5097641;28;20201;-68
2021/12/23 13:18:26;;;;;;;12.90;4.40;;;;;;;;;;5098928;28;20229;-68
2021/12/23 13:20:54;;;;;;;9.57;3.87;;;;;;;;;;5090329;28;20275;-68
2021/12/23 13:23:23;;;;;;;8.10;3.30;;;;;;;;;;5091286;28;20209;-68
2021/12/23 13:25:55;;;;;;;5.37;3.60;;;;;;;;;;5090474;28;20233;-68
2021/12/23 13:28:26;;;;;;;5.57;3.23;;;;;;;;;;5099067;28;20243;-67
2021/12/23 13:30:55;;;;;;;5.83;3.37;;;;;;;;;;5092549;28;20194;-68
2021/12/23 13:33:23;;;;;;;4.47;3.20;;;;;;;;;;5084490;28;20313;-68
2021/12/23 13:35:50;;;;;;;5.73;2.97;;;;;;;;;;5094363;28;20248;-68
2021/12/23 13:38:31;;;;;;;5.47;3.57;;;;;;;;;;5094828;28;20221;-68
2021/12/23 13:41:13;;;;;;;6.30;3.60;;;;;;;;;;5093694;28;20254;-68
2021/12/23 13:43:42;;;;;;;5.30;3.70;;;;;;;;;;5098324;28;20213;-67
2021/12/23 13:46:10;;;;;;;3.27;2.90;;;;;;;;;;5095024;28;20231;-67
2021/12/23 13:48:51;;;;;;;4.60;3.40;;;;;;;;;;5100666;28;20221;-67
2021/12/23 13:51:20;;;;;;;6.70;3.30;;;;;;;;;;5096261;28;20213;-67
2021/12/23 13:54:02;;;;;;;6.57;3.67;;;;;;;;;;5088961;28;20761;-67
2021/12/23 13:56:31;;;;;;;4.93;3.60;;;;;;;;;;5097330;28;20537;-68
2021/12/23 13:59:06;;;;;;;7.13;3.90;;;;;;;;;;5092914;28;20234;-67
2021/12/23 14:01:34;;;;;;;6.23;3.57;;;;;;;;;;5097976;28;20197;-67
2021/12/23 14:04:02;;;;;;;5.60;3.33;;;;;;;;;;5098174;28;20202;-67
2021/12/23 14:06:31;;;;;;;3.23;2.93;;;;;;;;;;5097902;28;20241;-68
2021/12/23 14:08:58;;;;;;;4.63;3.80;;;;;;;;;;5097636;28;20233;-67
2021/12/23 14:11:27;;;;;;;6.80;3.90;;;;;;;;;;5097848;28;20205;-68
2021/12/23 14:13:55;;;;;;;4.10;3.50;;;;;;;;;;5097954;28;20229;-68
2021/12/23 14:16:24;;;;;;;5.07;3.43;;;;;;;;;;5094319;28;21056;-67
2021/12/23 14:19:10;;;;;;;9.17;3.40;;;;;;;;;;5092423;28;20221;-67
2021/12/23 14:24:29;;;;;;;4.43;3.70;;;;;;;;;;5088569;28;20209;-67
2021/12/23 14:26:58;;;;;;;5.20;3.33;;;;;;;;;;5090136;28;20662;-67
2021/12/23 14:29:31;;;;;;;4.97;3.77;;;;;;;;;;5095002;28;20217;-67
2021/12/23 14:32:00;;;;;;;8.27;3.67;;;;;;;;;;5091082;28;20205;-67
2021/12/23 14:34:33;;;;;;;4.00;3.53;;;;;;;;;;5088923;28;20643;-67
2021/12/23 14:37:02;;;;;;;3.03;2.67;;;;;;;;;;5089824;28;20210;-67
2021/12/23 14:39:31;;;;;;;9.00;3.90;;;;;;;;;;5096634;28;20232;-67
2021/12/23 14:42:00;;;;;;;4.40;3.23;;;;;;;;;;5092210;28;20232;-68
2021/12/23 14:44:29;;;;;;;5.57;3.87;;;;;;;;;;5097380;28;20201;-67
2021/12/23 14:47:03;;;;;;;5.10;4.10;;;;;;;;;;5097330;28;20202;-73
2021/12/23 14:52:33;;;;;;;7.57;4.40;;;;;;;;;;5086733;28;20212;-65
2021/12/23 14:55:02;;;;;;;6.87;3.90;;;;;;;;;;5097143;28;20345;-65
2021/12/23 14:57:31;;;;;;;6.77;3.90;;;;;;;;;;5094532;28;20677;-66
2021/12/23 14:59:59;;;;;;;5.43;4.33;;;;;;;;;;5096238;28;20226;-66
2021/12/23 15:02:28;;;;;;;5.57;3.90;;;;;;;;;;5093765;28;20221;-66
2021/12/23 15:05:02;;;;;;;7.47;4.13;;;;;;;;;;5095777;28;20193;-65
2021/12/23 15:07:45;;;;;;;5.10;3.93;;;;;;;;;;5096018;28;20289;-66
2021/12/23 15:10:13;;;;;;;5.73;3.70;;;;;;;;;;5095668;28;20270;-66
2021/12/23 15:12:41;;;;;;;4.10;3.40;;;;;;;;;;5095613;28;20278;-66
2021/12/23 15:15:10;;;;;;;8.03;4.33;;;;;;;;;;5092148;28;20357;-65
2021/12/23 15:17:47;;;;;;;4.33;3.60;;;;;;;;;;5093393;28;20614;-66
2021/12/23 15:20:22;;;;;;;5.53;3.23;;;;;;;;;;5093348;28;20614;-66
2021/12/23 15:22:50;;;;;;;5.10;3.67;;;;;;;;;;5092092;28;20200;-66
2021/12/23 15:25:17;;;;;;;11.80;4.13;;;;;;;;;;5096265;28;20227;-66
2021/12/23 15:27:46;;;;;;;6.43;3.43;;;;;;;;;;5094695;28;20228;-66
2021/12/23 15:30:19;;;;;;;9.10;4.17;;;;;;;;;;5089782;28;20198;-66
2021/12/23 15:32:47;;;;;;;6.50;4.20;;;;;;;;;;5091102;28;20201;-65
2021/12/23 15:35:17;;;;;;;5.80;4.03;;;;;;;;;;5099896;28;20274;-67
2021/12/23 15:37:48;;;;;;;7.70;3.80;;;;;;;;;;5094825;28;20595;-66
2021/12/23 15:40:17;;;;;;;5.40;3.43;;;;;;;;;;5100388;28;20640;-66
2021/12/23 15:42:56;;;;;;;9.07;4.13;;;;;;;;;;5096584;28;20201;-65
2021/12/23 15:45:24;;;;;;;10.20;4.43;;;;;;;;;;5087216;28;20202;-65
2021/12/23 15:47:52;;;;;;;4.30;3.80;;;;;;;;;;5093350;28;20205;-65